Time,TemperatureF,DewpointF,PressureIn,WindDirection,WindDirectionDegrees,WindSpeedMPH,WindSpeedGustMPH,Humidity,HourlyPrecipIn,Conditions,Clouds,dailyrainin,SoftwareType,DateUTC
2013-02-15 00:00:00,2.0,-12.0,-100.00,NNW,333,17.0,26.0,51,-99.99,,,-99.99,,2013-02-15 07:00:00,
2013-02-15 00:42:00,2.0,-12.0,-100.00,NNW,333,17.0,26.0,51,-99.99,,,-99.99,,2013-02-15 07:42:00,
2013-02-15 00:52:00,2.0,-12.0,-100.00,NNW,333,17.0,26.0,51,-99.99,,,-99.99,,2013-02-15 07:52:00,
2013-02-15 01:00:00,1.0,-9.0,-100.00,NNW,329,13.0,22.0,63,-99.99,,,-99.99,,2013-02-15 08:00:00,
2013-02-15 01:42:00,1.0,-9.0,-100.00,NNW,329,13.0,22.0,63,-99.99,,,-99.99,,2013-02-15 08:42:00,
2013-02-15 01:53:00,1.0,-9.0,-100.00,NNW,329,13.0,22.0,63,-99.99,,,-99.99,,2013-02-15 08:53:00,
2013-02-15 02:00:00,0.0,-6.0,-100.00,NNW,330,14.0,24.0,74,-99.99,,,-99.99,,2013-02-15 09:00:00,
2013-02-15 02:42:00,0.0,-6.0,-100.00,NNW,330,14.0,24.0,74,-99.99,,,-99.99,,2013-02-15 09:42:00,
2013-02-15 02:52:00,0.0,-6.0,-100.00,NNW,330,14.0,24.0,74,-99.99,,,-99.99,,2013-02-15 09:52:00,
2013-02-15 03:00:00,0.0,-5.0,-100.00,NNW,333,14.0,24.0,78,-99.99,,,-99.99,,2013-02-15 10:00:00,
2013-02-15 03:42:00,0.0,-5.0,-100.00,NNW,333,14.0,24.0,78,-99.99,,,-99.99,,2013-02-15 10:42:00,
2013-02-15 03:52:00,0.0,-5.0,-100.00,NNW,333,14.0,24.0,78,-99.99,,,-99.99,,2013-02-15 10:52:00,
2013-02-15 04:00:00,0.0,-5.0,-100.00,NNW,335,15.0,24.0,78,-99.99,,,-99.99,,2013-02-15 11:00:00,
2013-02-15 04:42:00,0.0,-5.0,-100.00,NNW,335,15.0,24.0,78,-99.99,,,-99.99,,2013-02-15 11:42:00,
2013-02-15 04:52:00,0.0,-5.0,-100.00,NNW,335,15.0,24.0,78,-99.99,,,-99.99,,2013-02-15 11:52:00,
2013-02-15 05:00:00,0.0,-6.0,-100.00,NNW,332,17.0,27.0,75,-99.99,,,-99.99,,2013-02-15 12:00:00,
2013-02-15 05:42:00,0.0,-6.0,-100.00,NNW,332,17.0,27.0,75,-99.99,,,-99.99,,2013-02-15 12:42:00,
2013-02-15 05:52:00,0.0,-6.0,-100.00,NNW,332,17.0,27.0,75,-99.99,,,-99.99,,2013-02-15 12:52:00,
2013-02-15 06:00:00,0.0,-7.0,-100.00,NW,316,14.0,27.0,73,-99.99,,,-99.99,,2013-02-15 13:00:00,
2013-02-15 06:42:00,0.0,-7.0,-100.00,NW,316,14.0,27.0,73,-99.99,,,-99.99,,2013-02-15 13:42:00,
2013-02-15 06:52:00,0.0,-7.0,-100.00,NW,316,14.0,27.0,73,-99.99,,,-99.99,,2013-02-15 13:52:00,
2013-02-15 07:00:00,-1.0,-5.0,-100.00,WNW,290,10.0,14.0,81,-99.99,,,-99.99,,2013-02-15 14:00:00,
2013-02-15 07:42:00,-1.0,-5.0,-100.00,WNW,290,10.0,14.0,81,-99.99,,,-99.99,,2013-02-15 14:42:00,
2013-02-15 07:52:00,-1.0,-5.0,-100.00,WNW,290,10.0,14.0,81,-99.99,,,-99.99,,2013-02-15 14:52:00,
2013-02-15 08:00:00,-1.0,-4.0,-100.00,NNW,328,11.0,34.0,87,-99.99,,,-99.99,,2013-02-15 15:00:00,
2013-02-15 08:42:00,-1.0,-4.0,-100.00,NNW,328,11.0,34.0,87,-99.99,,,-99.99,,2013-02-15 15:42:00,
2013-02-15 08:52:00,-1.0,-4.0,-100.00,NNW,328,11.0,34.0,87,-99.99,,,-99.99,,2013-02-15 15:52:00,
2013-02-15 09:00:00,-1.0,-4.0,-100.00,NNW,338,18.0,33.0,87,-99.99,,,-99.99,,2013-02-15 16:00:00,
2013-02-15 09:43:00,-1.0,-4.0,-100.00,NNW,338,18.0,33.0,87,-99.99,,,-99.99,,2013-02-15 16:43:00,
2013-02-15 09:52:00,-1.0,-4.0,-100.00,NNW,338,18.0,33.0,87,-99.99,,,-99.99,,2013-02-15 16:52:00,
2013-02-15 10:00:00,-1.0,-4.0,-100.00,NNW,332,23.0,51.0,86,-99.99,,,-99.99,,2013-02-15 17:00:00,
2013-02-15 10:42:00,-1.0,-4.0,-100.00,NNW,332,23.0,51.0,86,-99.99,,,-99.99,,2013-02-15 17:42:00,
2013-02-15 10:52:00,-1.0,-4.0,-100.00,NNW,332,23.0,51.0,86,-99.99,,,-99.99,,2013-02-15 17:52:00,
2013-02-15 11:00:00,0.0,-3.0,-100.00,NNW,330,23.0,42.0,85,-99.99,,,-99.99,,2013-02-15 18:00:00,
2013-02-15 11:42:00,0.0,-3.0,-100.00,NNW,330,23.0,42.0,85,-99.99,,,-99.99,,2013-02-15 18:42:00,
2013-02-15 11:52:00,0.0,-3.0,-100.00,NNW,330,23.0,42.0,85,-99.99,,,-99.99,,2013-02-15 18:52:00,
2013-02-15 12:00:00,1.0,-3.0,-100.00,NNW,328,23.0,47.0,82,-99.99,,,-99.99,,2013-02-15 19:00:00,
2013-02-15 12:42:00,1.0,-3.0,-100.00,NNW,328,23.0,47.0,82,-99.99,,,-99.99,,2013-02-15 19:42:00,
2013-02-15 12:52:00,1.0,-3.0,-100.00,NNW,328,23.0,47.0,82,-99.99,,,-99.99,,2013-02-15 19:52:00,
2013-02-15 13:00:00,2.0,-3.0,-100.00,NNW,330,16.0,34.0,79,-99.99,,,-99.99,,2013-02-15 20:00:00,
2013-02-15 13:42:00,2.0,-3.0,-100.00,NNW,330,16.0,34.0,79,-99.99,,,-99.99,,2013-02-15 20:42:00,
2013-02-15 13:52:00,2.0,-3.0,-100.00,NNW,330,16.0,34.0,79,-99.99,,,-99.99,,2013-02-15 20:52:00,
2013-02-15 14:00:00,3.0,-3.0,-100.00,NW,318,14.0,33.0,77,-99.99,,,-99.99,,2013-02-15 21:00:00,
2013-02-15 14:42:00,3.0,-3.0,-100.00,NW,318,14.0,33.0,77,-99.99,,,-99.99,,2013-02-15 21:42:00,
2013-02-15 14:52:00,3.0,-3.0,-100.00,NW,318,14.0,33.0,77,-99.99,,,-99.99,,2013-02-15 21:52:00,
2013-02-15 15:00:00,4.0,-2.0,-100.00,NW,323,10.0,27.0,77,-99.99,,,-99.99,,2013-02-15 22:00:00,
2013-02-15 15:42:00,4.0,-2.0,-100.00,NW,323,10.0,27.0,77,-99.99,,,-99.99,,2013-02-15 22:42:00,
2013-02-15 15:52:00,4.0,-2.0,-100.00,NW,323,10.0,27.0,77,-99.99,,,-99.99,,2013-02-15 22:52:00,
2013-02-15 16:00:00,4.0,-2.0,-100.00,NW,324,11.0,28.0,75,-99.99,,,-99.99,,2013-02-15 23:00:00,
2013-02-15 16:42:00,4.0,-2.0,-100.00,NW,324,11.0,28.0,75,-99.99,,,-99.99,,2013-02-15 23:42:00,
2013-02-15 16:52:00,4.0,-2.0,-100.00,NW,324,11.0,28.0,75,-99.99,,,-99.99,,2013-02-15 23:52:00,
2013-02-15 17:00:00,3.0,-2.0,-100.00,NW,326,10.0,29.0,76,-99.99,,,-99.99,,2013-02-16 00:00:00,
2013-02-15 17:42:00,3.0,-2.0,-100.00,NW,326,10.0,29.0,76,-99.99,,,-99.99,,2013-02-16 00:42:00,
2013-02-15 17:52:00,3.0,-2.0,-100.00,NW,326,10.0,29.0,76,-99.99,,,-99.99,,2013-02-16 00:52:00,
2013-02-15 18:00:00,3.0,-5.0,-100.00,NNW,348,11.0,24.0,70,-99.99,,,-99.99,,2013-02-16 01:00:00,
2013-02-15 18:42:00,3.0,-5.0,-100.00,NNW,348,11.0,24.0,70,-99.99,,,-99.99,,2013-02-16 01:42:00,
2013-02-15 18:52:00,3.0,-5.0,-100.00,NNW,348,11.0,24.0,70,-99.99,,,-99.99,,2013-02-16 01:52:00,
2013-02-15 19:00:00,3.0,-9.0,-100.00,North,9,17.0,28.0,57,-99.99,,,-99.99,,2013-02-16 02:00:00,
2013-02-15 19:42:00,3.0,-9.0,-100.00,North,9,17.0,28.0,57,-99.99,,,-99.99,,2013-02-16 02:42:00,
2013-02-15 19:52:00,3.0,-9.0,-100.00,North,9,17.0,28.0,57,-99.99,,,-99.99,,2013-02-16 02:52:00,
2013-02-15 20:00:00,3.0,-10.0,-100.00,North,7,19.0,33.0,52,-99.99,,,-99.99,,2013-02-16 03:00:00,
2013-02-15 20:42:00,3.0,-10.0,-100.00,North,7,19.0,33.0,52,-99.99,,,-99.99,,2013-02-16 03:42:00,
2013-02-15 20:52:00,3.0,-10.0,-100.00,North,7,19.0,33.0,52,-99.99,,,-99.99,,2013-02-16 03:52:00,
2013-02-15 21:00:00,5.0,-11.0,-100.00,North,2,23.0,39.0,48,-99.99,,,-99.99,,2013-02-16 04:00:00,
2013-02-15 21:42:00,5.0,-11.0,-100.00,North,2,23.0,39.0,48,-99.99,,,-99.99,,2013-02-16 04:42:00,
2013-02-15 21:52:00,5.0,-11.0,-100.00,North,2,23.0,39.0,48,-99.99,,,-99.99,,2013-02-16 04:52:00,
2013-02-15 22:00:00,6.0,-7.0,-100.00,North,360,19.0,32.0,52,-99.99,,,-99.99,,2013-02-16 05:00:00,
2013-02-15 22:42:00,6.0,-7.0,-100.00,North,360,19.0,32.0,52,-99.99,,,-99.99,,2013-02-16 05:42:00,
2013-02-15 22:52:00,6.0,-7.0,-100.00,North,360,19.0,32.0,52,-99.99,,,-99.99,,2013-02-16 05:52:00,
2013-02-15 23:00:00,7.0,-6.0,-100.00,NNW,340,17.0,29.0,55,-99.99,,,-99.99,,2013-02-16 06:00:00,
2013-02-15 23:42:00,7.0,-6.0,-100.00,NNW,340,17.0,29.0,55,-99.99,,,-99.99,,2013-02-16 06:42:00,
2013-02-15 23:52:00,7.0,-6.0,-100.00,NNW,340,17.0,29.0,55,-99.99,,,-99.99,,2013-02-16 06:52:00,